createdAt,value
2019-05-30T00:00:42.593Z,94926.83
2019-05-30T00:03:13.837Z,94927.23
2019-05-30T00:05:43.489Z,94924.39
2019-05-30T00:08:13.253Z,94918.55
2019-05-30T00:10:42.898Z,94925.46
2019-05-30T00:13:12.538Z,94918.20
2019-05-30T00:15:42.149Z,94930.32
2019-05-30T00:18:11.783Z,94927.00
2019-05-30T00:20:41.598Z,94928.58
2019-05-30T00:23:11.318Z,94909.78
2019-05-30T00:25:42.203Z,94922.17
2019-05-30T00:28:11.845Z,94920.22
2019-05-30T00:30:47.943Z,94923.53
2019-05-30T00:33:17.635Z,94928.81
2019-05-30T00:35:47.283Z,94922.17
2019-05-30T00:38:16.913Z,94919.41
2019-05-30T00:40:46.584Z,94918.84
2019-05-30T00:43:16.074Z,94909.26
2019-05-30T00:45:45.656Z,94924.40
2019-05-30T00:48:15.196Z,94924.18
2019-05-30T00:50:44.684Z,94921.28
2019-05-30T00:53:14.321Z,94931.52
2019-05-30T00:55:48.498Z,94930.62
2019-05-30T00:58:18.114Z,94935.52
2019-05-30T01:00:47.874Z,94935.53
2019-05-30T01:03:19.488Z,94930.55
2019-05-30T01:05:49.165Z,94933.31
2019-05-30T01:08:18.622Z,94949.70
2019-05-30T01:10:48.211Z,94937.52
2019-05-30T01:13:17.920Z,94929.30
2019-05-30T01:15:47.673Z,94936.16
2019-05-30T01:18:17.313Z,94944.23
2019-05-30T01:20:46.973Z,94948.92
2019-05-30T01:23:17.524Z,94951.97
2019-05-30T01:25:47.088Z,94901.42
2019-05-30T01:28:16.727Z,94941.16
2019-05-30T01:31:03.073Z,94946.73
2019-05-30T01:33:22.644Z,94944.81
2019-05-30T01:35:52.350Z,94955.65
2019-05-30T01:38:22.013Z,94959.83
2019-05-30T01:40:51.613Z,94954.98
2019-05-30T01:43:21.244Z,94961.31
2019-05-30T01:45:50.937Z,94918.63
2019-05-30T01:48:20.563Z,94961.13
2019-05-30T01:50:50.173Z,94959.17
2019-05-30T01:53:19.752Z,94966.92
2019-05-30T01:55:51.526Z,94969.29
2019-05-30T01:58:21.187Z,94967.70
2019-05-30T02:00:51.436Z,94971.84
2019-05-30T02:03:24.120Z,94971.02
2019-05-30T02:05:55.235Z,94970.36
2019-05-30T02:08:25.005Z,94979.02
2019-05-30T02:10:54.764Z,94985.38
2019-05-30T02:13:24.677Z,94985.55
2019-05-30T02:15:54.311Z,94977.48
2019-05-30T02:18:23.944Z,94986.20
2019-05-30T02:20:53.481Z,94990.41
2019-05-30T02:23:23.044Z,94991.63
2019-05-30T02:25:52.622Z,94983.52
2019-05-30T02:28:22.262Z,94978.63
2019-05-30T02:30:51.929Z,94992.64
2019-05-30T02:33:21.597Z,94986.77
2019-05-30T02:35:51.419Z,94989.12
2019-05-30T02:38:21.045Z,94992.34
2019-05-30T02:40:50.609Z,94994.31
2019-05-30T02:43:20.100Z,94997.34
2019-05-30T02:45:49.663Z,94992.80
2019-05-30T02:48:22.056Z,94998.55
2019-05-30T02:50:51.604Z,94997.45
2019-05-30T02:53:21.122Z,94996.84
2019-05-30T02:55:50.652Z,94996.63
2019-05-30T02:58:20.148Z,94996.97
2019-05-30T03:00:49.790Z,94985.88
2019-05-30T03:03:19.447Z,95000.78
2019-05-30T03:05:50.282Z,94997.84
2019-05-30T03:08:20.020Z,95003.26
2019-05-30T03:10:49.828Z,94998.18
2019-05-30T03:13:19.709Z,94995.07
2019-05-30T03:15:49.876Z,94999.30
2019-05-30T03:18:19.491Z,94998.92
2019-05-30T03:20:49.178Z,94998.28
2019-05-30T03:23:18.737Z,95001.36
2019-05-30T03:25:48.322Z,94997.62
2019-05-30T03:28:17.922Z,95004.55
2019-05-30T03:30:47.592Z,95001.80
2019-05-30T03:57:07.057Z,95017.88
2019-05-30T04:06:10.160Z,95027.19
2019-05-30T04:08:40.892Z,95031.20
2019-05-30T04:11:14.748Z,95032.64
2019-05-30T04:14:13.291Z,95036.30
2019-05-30T04:16:47.644Z,95031.25
2019-05-30T04:19:12.556Z,95036.59
2019-05-30T04:22:09.341Z,95035.69
2019-05-30T04:24:29.642Z,95036.51
2019-05-30T04:26:51.636Z,95034.39
2019-05-30T04:29:35.206Z,95039.63
2019-05-30T04:32:03.809Z,95039.84
2019-05-30T04:34:35.053Z,95040.82
2019-05-30T04:37:05.006Z,95035.35
2019-05-30T04:39:34.902Z,95029.75
2019-05-30T04:42:06.654Z,95030.90
2019-05-30T04:44:37.170Z,95023.87
2019-05-30T04:47:10.023Z,95026.02
2019-05-30T04:52:47.489Z,94983.59
2019-05-30T04:58:01.741Z,95029.79
2019-05-30T05:00:31.495Z,95036.22
2019-05-30T05:09:35.796Z,95034.95
2019-05-30T05:12:05.505Z,95036.63
2019-05-30T05:14:35.160Z,95041.09
2019-05-30T05:17:04.870Z,95041.09
2019-05-30T05:23:21.350Z,95041.72
2019-05-30T05:25:28.068Z,95039.02
2019-05-30T05:28:52.742Z,95044.63
2019-05-30T05:30:43.260Z,95041.15
2019-05-30T05:33:12.884Z,95037.73
2019-05-30T05:36:18.769Z,95039.16
2019-05-30T05:38:50.397Z,95034.39
2019-05-30T05:41:22.319Z,95037.38
2019-05-30T05:44:07.538Z,95032.95
2019-05-30T05:46:28.504Z,95032.12
2019-05-30T05:49:03.623Z,95030.33
2019-05-30T05:51:33.121Z,95033.17
2019-05-30T05:54:02.659Z,95017.67
2019-05-30T05:56:32.153Z,95033.60
2019-05-30T05:59:01.669Z,95026.36
2019-05-30T06:01:31.779Z,95024.63
2019-05-30T06:04:12.500Z,95012.22
2019-05-30T06:06:32.785Z,95018.93
2019-05-30T06:09:02.275Z,95019.80
2019-05-30T06:11:31.921Z,95014.52
2019-05-30T06:14:01.541Z,95006.47
2019-05-30T06:16:31.223Z,94997.66
2019-05-30T06:19:00.713Z,95000.47
2019-05-30T06:21:31.530Z,94999.45
2019-05-30T06:24:00.970Z,95018.52
2019-05-30T06:26:30.550Z,95007.14
2019-05-30T06:29:00.138Z,94995.01
2019-05-30T06:31:29.714Z,95017.37
2019-05-30T06:33:59.280Z,94985.87
2019-05-30T06:36:29.331Z,95010.62
2019-05-30T06:39:00.930Z,95006.83
2019-05-30T06:41:32.004Z,95009.45
2019-05-30T06:44:08.603Z,94992.51
2019-05-30T06:46:38.138Z,94988.36
2019-05-30T06:49:08.720Z,94990.20
2019-05-30T06:51:38.283Z,95000.84
2019-05-30T06:54:07.936Z,94995.37
2019-05-30T06:56:37.376Z,94990.20
2019-05-30T06:59:06.962Z,94984.91
2019-05-30T07:01:36.374Z,94980.15
2019-05-30T07:04:06.324Z,94990.27
2019-05-30T07:06:36.556Z,94979.88
2019-05-30T07:09:08.500Z,94990.13
2019-05-30T07:11:38.037Z,94982.17
2019-05-30T07:14:07.669Z,94968.48
2019-05-30T07:16:37.552Z,94985.30
2019-05-30T07:19:08.119Z,94994.02
2019-05-30T07:21:38.626Z,94996.06
2019-05-30T07:24:08.309Z,94987.50
2019-05-30T07:26:39.217Z,94990.34
2019-05-30T07:29:08.702Z,94984.12
2019-05-30T07:31:38.209Z,94975.36
2019-05-30T07:34:07.876Z,94993.61
2019-05-30T07:36:37.514Z,94988.33
2019-05-30T07:39:08.671Z,94991.50
2019-05-30T07:41:38.270Z,94989.33
2019-05-30T07:44:09.416Z,94990.44
2019-05-30T07:46:39.241Z,94995.88
2019-05-30T07:49:08.842Z,95006.14
2019-05-30T07:51:39.619Z,94998.41
2019-05-30T07:54:09.186Z,95017.97
2019-05-30T07:56:38.883Z,94986.38
2019-05-30T07:59:08.410Z,94999.00
2019-05-30T08:01:39.615Z,94984.05
2019-05-30T08:04:09.007Z,94986.45
2019-05-30T08:06:38.574Z,94987.24
2019-05-30T08:09:08.148Z,94974.30
2019-05-30T08:11:37.642Z,94984.34
2019-05-30T08:14:07.210Z,94975.89
2019-05-30T08:16:37.492Z,94975.17
2019-05-30T08:19:10.276Z,94965.22
2019-05-30T08:21:39.751Z,94971.55
2019-05-30T08:24:09.461Z,94966.02
2019-05-30T08:26:39.037Z,94966.83
2019-05-30T08:29:08.566Z,94965.77
2019-05-30T08:31:38.887Z,94960.94
2019-05-30T08:34:08.754Z,94979.60
2019-05-30T08:36:39.200Z,94964.80
2019-05-30T08:39:08.874Z,94963.63
2019-05-30T08:41:39.525Z,94973.66
2019-05-30T08:44:09.118Z,94958.55
2019-05-30T08:46:40.784Z,94967.58
2019-05-30T08:49:10.289Z,94948.35
2019-05-30T08:51:40.499Z,94968.30
2019-05-30T08:54:13.533Z,94963.73
2019-05-30T08:56:42.068Z,94962.84
2019-05-30T08:59:11.488Z,94951.71
2019-05-30T09:01:42.138Z,94955.42
2019-05-30T09:04:12.323Z,94951.16
2019-05-30T09:06:42.109Z,94947.63
2019-05-30T09:09:11.628Z,94951.94
2019-05-30T09:11:42.321Z,94957.16
2019-05-30T09:14:11.909Z,94956.39
2019-05-30T09:16:41.533Z,94949.78
2019-05-30T09:19:11.108Z,94946.60
2019-05-30T09:21:41.773Z,94932.48
2019-05-30T09:24:19.102Z,94948.52
2019-05-30T09:26:50.430Z,94935.37
2019-05-30T09:29:20.151Z,94936.49
2019-05-30T09:31:49.643Z,94937.18
2019-05-30T09:34:19.135Z,94948.27
2019-05-30T09:36:49.186Z,94949.15
2019-05-30T09:39:19.162Z,94937.81
2019-05-30T09:41:49.837Z,94926.31
2019-05-30T09:44:19.524Z,94936.52
2019-05-30T09:46:50.420Z,94914.74
2019-05-30T09:49:20.313Z,94915.07
2019-05-30T09:51:51.033Z,94914.05
2019-05-30T09:54:20.733Z,94918.34
2019-05-30T09:56:50.932Z,94927.68
2019-05-30T09:59:21.292Z,94922.98
2019-05-30T10:01:52.033Z,94934.56
2019-05-30T10:04:21.865Z,94941.70
2019-05-30T10:06:52.561Z,94928.55
2019-05-30T10:09:22.329Z,94918.45
2019-05-30T10:11:51.894Z,94910.53
2019-05-30T10:14:21.469Z,94909.80
2019-05-30T10:16:54.781Z,94909.08
2019-05-30T10:19:22.381Z,94913.32
2019-05-30T10:21:53.144Z,94922.59
2019-05-30T10:24:24.691Z,94908.86
2019-05-30T10:26:54.315Z,94908.83
2019-05-30T10:29:23.871Z,94901.16
2019-05-30T10:31:53.363Z,94889.55
2019-05-30T10:34:22.891Z,94895.41
2019-05-30T10:36:53.662Z,94898.42
2019-05-30T10:39:24.835Z,94904.41
2019-05-30T10:41:54.322Z,94890.23
2019-05-30T10:44:23.957Z,94906.83
2019-05-30T10:46:54.590Z,94913.28
2019-05-30T10:49:34.313Z,94912.52
2019-05-30T10:51:59.121Z,94909.33
2019-05-30T10:54:27.134Z,94895.96
2019-05-30T10:56:56.730Z,94916.42
2019-05-30T10:59:26.325Z,94914.27
2019-05-30T11:01:56.680Z,94905.58
2019-05-30T11:04:26.263Z,94907.73
2019-05-30T11:07:11.483Z,94907.88
2019-05-30T11:09:38.698Z,94880.70
2019-05-30T11:12:08.125Z,94879.23
2019-05-30T11:14:37.629Z,94896.83
2019-05-30T11:17:07.413Z,94891.81
2019-05-30T11:19:36.904Z,94879.21
2019-05-30T11:22:06.425Z,94891.12
2019-05-30T11:24:36.944Z,94886.48
2019-05-30T11:27:21.942Z,94845.99
2019-05-30T11:29:58.920Z,94900.20
2019-05-30T11:32:30.441Z,94907.65
2019-05-30T11:35:00.012Z,94885.55
2019-05-30T11:37:29.699Z,94901.46
2019-05-30T11:40:00.194Z,94910.42
2019-05-30T11:42:29.891Z,94899.33
2019-05-30T11:45:12.130Z,94907.61
2019-05-30T11:47:32.558Z,94895.08
2019-05-30T11:50:13.081Z,94900.61
2019-05-30T11:53:12.108Z,94906.70
2019-05-30T11:55:52.139Z,94908.66
2019-05-30T11:58:25.091Z,94909.55
2019-05-30T12:01:04.363Z,94899.06
2019-05-30T12:03:35.627Z,94904.55
2019-05-30T12:06:34.600Z,94893.38
2019-05-30T12:09:26.206Z,94880.24
2019-05-30T12:11:47.793Z,94888.58
2019-05-30T12:14:21.507Z,94901.67
2019-05-30T12:16:53.188Z,94894.33
2019-05-30T12:19:23.405Z,94883.73
2019-05-30T12:21:53.596Z,94877.37
2019-05-30T12:24:23.196Z,94871.74
2019-05-30T12:27:03.807Z,94884.67
2019-05-30T12:29:39.377Z,94881.64
2019-05-30T12:32:17.897Z,94895.23
2019-05-30T12:34:54.396Z,94876.15
2019-05-30T12:37:25.531Z,94895.37
2019-05-30T12:40:03.230Z,94896.83
2019-05-30T12:42:38.591Z,94889.23
2019-05-30T12:45:14.647Z,94893.75
2019-05-30T12:47:45.845Z,94908.97
2019-05-30T12:50:16.875Z,94889.52
2019-05-30T12:52:53.376Z,94889.09
2019-05-30T12:55:26.644Z,94885.59
2019-05-30T12:58:03.508Z,94891.84
2019-05-30T13:00:36.177Z,94889.75
2019-05-30T13:03:28.243Z,94907.36
2019-05-30T13:06:36.116Z,94913.27
2019-05-30T13:09:15.730Z,94925.66
2019-05-30T13:11:45.513Z,94917.16
2019-05-30T13:14:30.845Z,94909.07
2019-05-30T13:17:06.004Z,94862.52
2019-05-30T13:19:47.045Z,94891.38
2019-05-30T13:22:21.553Z,94899.78
2019-05-30T13:24:55.488Z,94893.81
2019-05-30T13:27:25.923Z,94903.79
2019-05-30T13:29:57.999Z,94894.60
2019-05-30T13:32:28.890Z,94899.55
2019-05-30T13:38:03.136Z,94910.79
2019-05-30T13:40:37.405Z,94897.26
2019-05-30T13:43:08.052Z,94907.00
2019-05-30T13:45:58.114Z,94916.27
2019-05-30T13:48:27.890Z,94907.92
2019-05-30T13:51:14.772Z,94893.71
2019-05-30T13:53:41.511Z,94899.02
2019-05-30T13:56:11.196Z,94896.81
2019-05-30T13:58:40.894Z,94891.72
2019-05-30T14:01:13.833Z,94889.52
2019-05-30T14:03:43.040Z,94888.78
2019-05-30T14:12:14.299Z,94897.12
2019-05-30T14:17:59.000Z,94886.06
2019-05-30T14:20:30.217Z,94881.92
2019-05-30T14:23:01.499Z,94887.46
2019-05-30T14:25:31.261Z,94867.95
2019-05-30T14:28:01.485Z,94891.02
2019-05-30T14:30:34.053Z,94884.28
2019-05-30T14:33:04.107Z,94876.25
2019-05-30T14:35:33.937Z,94864.22
2019-05-30T14:38:04.697Z,94874.45
2019-05-30T14:40:34.247Z,94871.35
2019-05-30T14:43:05.154Z,94889.11
2019-05-30T14:45:35.007Z,94881.26
2019-05-30T14:48:06.324Z,94896.87
2019-05-30T14:50:36.068Z,94886.66
2019-05-30T14:53:06.732Z,94880.83
2019-05-30T14:55:36.772Z,94886.67
2019-05-30T14:58:07.152Z,94900.20
2019-05-30T15:00:37.012Z,94900.98
2019-05-30T15:03:09.253Z,94907.15
2019-05-30T15:05:37.960Z,94911.11
2019-05-30T15:08:08.415Z,94922.77
2019-05-30T15:10:38.123Z,94927.83
2019-05-30T15:13:07.604Z,94918.32
2019-05-30T15:15:37.175Z,94915.61
2019-05-30T15:18:07.413Z,94919.92
2019-05-30T15:20:37.022Z,94911.38
2019-05-30T15:23:07.552Z,94921.18
2019-05-30T15:25:37.275Z,94920.70
2019-05-30T15:28:07.959Z,94928.41
2019-05-30T15:30:37.852Z,94911.34
2019-05-30T15:33:08.288Z,94932.75
2019-05-30T15:35:37.842Z,94911.28
2019-05-30T15:38:08.721Z,94918.59
2019-05-30T15:40:38.434Z,94930.12
2019-05-30T15:43:09.250Z,94912.94
2019-05-30T15:45:39.284Z,94930.42
2019-05-30T15:48:10.219Z,94934.36
2019-05-30T15:50:40.221Z,94923.53
2019-05-30T15:53:10.963Z,94934.09
2019-05-30T15:55:42.810Z,94928.14
2019-05-30T15:58:13.507Z,94927.53
2019-05-30T16:00:43.458Z,94925.77
2019-05-30T16:03:16.477Z,94917.41
2019-05-30T16:05:53.778Z,94927.80
2019-05-30T16:08:23.586Z,94922.61
2019-05-30T16:10:53.663Z,94928.31
2019-05-30T16:13:23.321Z,94929.11
2019-05-30T16:16:39.011Z,94935.11
2019-05-30T16:18:29.483Z,94894.75
2019-05-30T16:20:59.038Z,94923.71
2019-05-30T16:23:28.464Z,94937.52
2019-05-30T16:25:58.238Z,94930.39
2019-05-30T16:28:27.730Z,94935.11
2019-05-30T16:30:57.375Z,94935.65
2019-05-30T16:33:27.051Z,94928.45
2019-05-30T16:35:56.507Z,94935.59
2019-05-30T16:38:29.609Z,94940.06
2019-05-30T16:41:00.112Z,94936.27
2019-05-30T16:43:29.912Z,94941.56
2019-05-30T16:45:59.420Z,94949.74
2019-05-30T16:48:29.647Z,94948.70
2019-05-30T16:50:59.170Z,94937.52
2019-05-30T16:53:28.736Z,94941.84
2019-05-30T16:56:00.099Z,94942.13
2019-05-30T16:58:29.930Z,94951.16
2019-05-30T17:01:01.065Z,94957.27
2019-05-30T17:03:31.804Z,94954.38
2019-05-30T17:06:01.381Z,94970.70
2019-05-30T17:08:35.748Z,94961.33
2019-05-30T17:11:03.854Z,94971.56
2019-05-30T17:13:33.527Z,94966.62
2019-05-30T17:16:04.751Z,94974.23
2019-05-30T17:18:36.997Z,94973.20
2019-05-30T17:21:08.039Z,94975.83
2019-05-30T17:23:37.615Z,94986.58
2019-05-30T17:26:07.276Z,94979.52
2019-05-30T17:28:36.848Z,94981.11
2019-05-30T17:31:06.486Z,94985.81
2019-05-30T17:33:36.141Z,94979.27
2019-05-30T17:36:06.179Z,94985.23
2019-05-30T17:38:38.868Z,94988.66
2019-05-30T17:41:12.627Z,94997.52
2019-05-30T17:43:42.334Z,94994.92
2019-05-30T17:46:12.974Z,94999.12
2019-05-30T17:48:44.270Z,95001.89
2019-05-30T17:51:15.415Z,95008.42
2019-05-30T17:53:45.100Z,95005.27
2019-05-30T17:56:16.097Z,95015.13
2019-05-30T17:58:50.636Z,95019.00
2019-05-30T18:01:24.237Z,95021.52
2019-05-30T18:03:53.906Z,95019.42
2019-05-30T18:06:26.469Z,95015.42
2019-05-30T18:08:56.227Z,95033.13
2019-05-30T18:11:29.032Z,95040.28
2019-05-30T18:14:00.566Z,95052.14
2019-05-30T18:16:34.081Z,95047.78
2019-05-30T18:19:08.478Z,95056.09
2019-05-30T18:21:37.864Z,95069.14
2019-05-30T18:24:07.727Z,95062.34
2019-05-30T18:26:39.074Z,95074.70
2019-05-30T18:29:10.297Z,95078.66
2019-05-30T18:31:46.186Z,95085.97
2019-05-30T18:34:16.477Z,95098.41
2019-05-30T18:36:49.649Z,95103.57
2019-05-30T18:39:24.476Z,95104.36
2019-05-30T18:42:00.494Z,95098.77
2019-05-30T18:44:32.817Z,95108.57
2019-05-30T18:47:13.897Z,95115.64
2019-05-30T18:49:43.548Z,95116.59
2019-05-30T18:52:13.173Z,95116.22
2019-05-30T18:54:42.878Z,95130.63
2019-05-30T18:57:12.620Z,95128.45
2019-05-30T18:59:42.300Z,95127.48
2019-05-30T19:02:12.016Z,95133.05
2019-05-30T19:04:42.367Z,95138.42
2019-05-30T19:07:14.007Z,95138.79
2019-05-30T19:09:43.421Z,95133.15
2019-05-30T19:12:13.076Z,95140.41
2019-05-30T19:14:42.656Z,95144.96
2019-05-30T19:17:12.302Z,95139.02
2019-05-30T19:19:41.945Z,95148.50
2019-05-30T19:22:11.604Z,95153.56
2019-05-30T19:24:41.301Z,95149.03
2019-05-30T19:27:17.111Z,95146.05
2019-05-30T19:29:46.740Z,95148.72
2019-05-30T19:32:19.567Z,95154.95
2019-05-30T19:34:53.826Z,95151.41
2019-05-30T19:37:25.210Z,95147.94
2019-05-30T19:39:54.951Z,95139.84
2019-05-30T19:57:50.140Z,95171.86
2019-05-30T20:00:55.571Z,95177.38
2019-05-30T20:03:10.168Z,95171.71
2019-05-30T20:05:41.120Z,95176.63
2019-05-30T20:08:14.289Z,95174.25
2019-05-30T20:13:41.306Z,95177.54
2019-05-30T20:16:13.711Z,95187.12
2019-05-30T20:18:47.655Z,95177.23
2019-05-30T20:21:25.127Z,95171.64
2019-05-30T20:23:59.416Z,95177.91
2019-05-30T20:26:48.507Z,95179.94
2019-05-30T20:29:25.169Z,95191.15
2019-05-30T20:31:56.291Z,95167.91
2019-05-30T20:37:24.348Z,95190.97
2019-05-30T20:42:59.186Z,95188.08
2019-05-30T20:45:31.760Z,95196.50
2019-05-30T20:48:13.107Z,95202.20
2019-05-30T20:56:32.673Z,95199.82
2019-05-30T20:59:02.388Z,95203.90
2019-05-30T21:01:36.042Z,95211.19
2019-05-30T21:04:06.481Z,95208.13
2019-05-30T21:06:38.721Z,95215.17
2019-05-30T21:09:27.355Z,95211.73
2019-05-30T21:11:44.338Z,95217.77
2019-05-30T21:14:16.248Z,95216.46
2019-05-30T21:16:49.357Z,95228.13
2019-05-30T21:19:19.007Z,95224.73
2019-05-30T21:21:48.644Z,95222.87
2019-05-30T21:24:18.228Z,95218.37
2019-05-30T21:26:47.924Z,95219.45
2019-05-30T21:29:17.553Z,95224.69
2019-05-30T21:31:47.571Z,95234.24
2019-05-30T21:34:18.534Z,95229.88
2019-05-30T21:36:49.418Z,95221.95
2019-05-30T21:39:19.045Z,95227.56
2019-05-30T21:41:48.618Z,95225.45
2019-05-30T21:44:18.575Z,95226.84
2019-05-30T21:46:48.968Z,95221.51
2019-05-30T21:49:19.208Z,95222.55
2019-05-30T21:51:49.687Z,95219.45
2019-05-30T21:54:19.643Z,95221.41
2019-05-30T21:56:50.296Z,95227.82
2019-05-30T21:59:20.219Z,95232.20
2019-05-30T22:01:56.917Z,95217.41
2019-05-30T22:04:21.334Z,95225.34
2019-05-30T22:06:51.593Z,95222.80
2019-05-30T22:09:21.289Z,95219.49
2019-05-30T22:11:53.046Z,95222.03
2019-05-30T22:14:22.696Z,95214.28
2019-05-30T22:16:52.365Z,95218.61
2019-05-30T22:19:22.111Z,95216.38
2019-05-30T22:21:52.446Z,95209.39
2019-05-30T22:24:22.467Z,95218.84
2019-05-30T22:26:53.603Z,95218.41
2019-05-30T22:29:25.470Z,95220.97
2019-05-30T22:31:54.909Z,95226.14
2019-05-30T22:34:25.459Z,95216.13
2019-05-30T22:36:55.090Z,95213.63
2019-05-30T22:39:25.082Z,95218.89
2019-05-30T22:41:54.756Z,95216.92
2019-05-30T22:44:24.182Z,95215.30
2019-05-30T22:46:53.788Z,95217.80
2019-05-30T22:49:23.402Z,95213.73
2019-05-30T22:51:53.232Z,95212.30
2019-05-30T22:54:22.853Z,95220.80
2019-05-30T22:56:53.513Z,95214.77
2019-05-30T22:59:23.548Z,95212.67
2019-05-30T23:01:53.694Z,95215.70
2019-05-30T23:04:23.352Z,95215.35
2019-05-30T23:06:54.432Z,95210.27
2019-05-30T23:09:24.180Z,95215.88
2019-05-30T23:11:53.903Z,95201.72
2019-05-30T23:14:23.389Z,95210.05
2019-05-30T23:16:54.378Z,95202.91
2019-05-30T23:19:24.311Z,95211.64
2019-05-30T23:21:57.289Z,95203.00
2019-05-30T23:24:26.847Z,95210.68
2019-05-30T23:26:56.381Z,95212.20
2019-05-30T23:29:25.929Z,95209.95
2019-05-30T23:31:56.199Z,95214.84
2019-05-30T23:34:28.041Z,95213.35
2019-05-30T23:36:58.662Z,95202.67
2019-05-30T23:39:28.512Z,95208.63
2019-05-30T23:41:59.291Z,95204.44
2019-05-30T23:44:28.985Z,95198.59
2019-05-30T23:46:59.653Z,95202.21
2019-05-30T23:49:29.332Z,95205.48
2019-05-30T23:52:00.225Z,95206.47
2019-05-30T23:54:30.266Z,95207.63
2019-05-30T23:57:00.812Z,95215.93
2019-05-30T23:59:31.374Z,95216.84
